sensor_id;sensor_type;location;lat;lon;timestamp;P1;durP1;ratioP1;P2;durP2;ratioP2
17253;SDS011;32542;52.832;13.816;2023-01-28T00:01:42;14.10;;;7.28;;
17253;SDS011;32542;52.832;13.816;2023-01-28T00:04:45;11.43;;;7.38;;
17253;SDS011;32542;52.832;13.816;2023-01-28T00:07:48;13.07;;;7.82;;
17253;SDS011;32542;52.832;13.816;2023-01-28T00:10:51;11.68;;;7.15;;
17253;SDS011;32542;52.832;13.816;2023-01-28T00:13:55;12.25;;;6.88;;
17253;SDS011;32542;52.832;13.816;2023-01-28T00:17:00;11.45;;;7.13;;
17253;SDS011;32542;52.832;13.816;2023-01-28T00:20:06;11.55;;;6.78;;
17253;SDS011;32542;52.832;13.816;2023-01-28T00:23:10;10.82;;;6.93;;
17253;SDS011;32542;52.832;13.816;2023-01-28T00:26:13;13.02;;;6.95;;
17253;SDS011;32542;52.832;13.816;2023-01-28T00:29:19;11.57;;;6.85;;
17253;SDS011;32542;52.832;13.816;2023-01-28T00:32:23;10.95;;;7.25;;
17253;SDS011;32542;52.832;13.816;2023-01-28T00:35:26;10.55;;;6.82;;
17253;SDS011;32542;52.832;13.816;2023-01-28T00:38:30;11.68;;;7.45;;
17253;SDS011;32542;52.832;13.816;2023-01-28T00:41:33;13.20;;;7.15;;
17253;SDS011;32542;52.832;13.816;2023-01-28T00:44:36;10.85;;;6.63;;
17253;SDS011;32542;52.832;13.816;2023-01-28T00:47:40;11.20;;;6.88;;
17253;SDS011;32542;52.832;13.816;2023-01-28T00:50:45;11.98;;;6.45;;
17253;SDS011;32542;52.832;13.816;2023-01-28T00:53:48;9.57;;;6.55;;
17253;SDS011;32542;52.832;13.816;2023-01-28T00:56:51;10.25;;;6.78;;
17253;SDS011;32542;52.832;13.816;2023-01-28T00:59:54;11.98;;;6.85;;
17253;SDS011;32542;52.832;13.816;2023-01-28T01:02:59;14.10;;;6.18;;
17253;SDS011;32542;52.832;13.816;2023-01-28T01:06:02;8.73;;;6.03;;
17253;SDS011;32542;52.832;13.816;2023-01-28T01:09:06;11.73;;;6.53;;
17253;SDS011;32542;52.832;13.816;2023-01-28T01:12:14;11.70;;;6.72;;
17253;SDS011;32542;52.832;13.816;2023-01-28T01:15:18;9.70;;;5.80;;
17253;SDS011;32542;52.832;13.816;2023-01-28T01:18:22;9.20;;;6.35;;
17253;SDS011;32542;52.832;13.816;2023-01-28T01:21:27;11.05;;;5.97;;
17253;SDS011;32542;52.832;13.816;2023-01-28T01:24:30;12.02;;;6.55;;
17253;SDS011;32542;52.832;13.816;2023-01-28T01:27:34;10.02;;;6.28;;
17253;SDS011;32542;52.832;13.816;2023-01-28T01:30:37;9.30;;;6.30;;
17253;SDS011;32542;52.832;13.816;2023-01-28T01:33:42;9.40;;;6.25;;
17253;SDS011;32542;52.832;13.816;2023-01-28T01:36:46;9.63;;;6.10;;
17253;SDS011;32542;52.832;13.816;2023-01-28T01:39:49;10.43;;;6.70;;
17253;SDS011;32542;52.832;13.816;2023-01-28T01:42:52;8.85;;;5.68;;
17253;SDS011;32542;52.832;13.816;2023-01-28T01:45:56;11.65;;;6.10;;
17253;SDS011;32542;52.832;13.816;2023-01-28T01:49:07;7.38;;;5.57;;
17253;SDS011;32542;52.832;13.816;2023-01-28T01:52:18;10.60;;;5.70;;
17253;SDS011;32542;52.832;13.816;2023-01-28T01:55:26;7.68;;;5.55;;
17253;SDS011;32542;52.832;13.816;2023-01-28T01:58:33;11.52;;;5.88;;
17253;SDS011;32542;52.832;13.816;2023-01-28T02:01:37;10.25;;;6.00;;
17253;SDS011;32542;52.832;13.816;2023-01-28T02:04:44;7.80;;;5.60;;
17253;SDS011;32542;52.832;13.816;2023-01-28T02:07:50;9.05;;;5.68;;
17253;SDS011;32542;52.832;13.816;2023-01-28T02:11:18;9.18;;;5.38;;
17253;SDS011;32542;52.832;13.816;2023-01-28T02:14:20;8.90;;;5.82;;
17253;SDS011;32542;52.832;13.816;2023-01-28T02:17:31;8.05;;;5.50;;
17253;SDS011;32542;52.832;13.816;2023-01-28T02:20:38;9.65;;;5.57;;
17253;SDS011;32542;52.832;13.816;2023-01-28T02:24:07;7.60;;;5.32;;
17253;SDS011;32542;52.832;13.816;2023-01-28T02:27:28;8.00;;;5.63;;
17253;SDS011;32542;52.832;13.816;2023-01-28T02:30:40;8.75;;;5.40;;
17253;SDS011;32542;52.832;13.816;2023-01-28T02:33:49;7.40;;;5.35;;
17253;SDS011;32542;52.832;13.816;2023-01-28T02:36:57;8.45;;;5.03;;
17253;SDS011;32542;52.832;13.816;2023-01-28T02:40:05;9.93;;;5.13;;
17253;SDS011;32542;52.832;13.816;2023-01-28T02:43:11;8.25;;;5.60;;
17253;SDS011;32542;52.832;13.816;2023-01-28T02:46:18;8.88;;;5.05;;
17253;SDS011;32542;52.832;13.816;2023-01-28T02:49:41;7.93;;;5.43;;
17253;SDS011;32542;52.832;13.816;2023-01-28T02:52:51;6.93;;;4.65;;
17253;SDS011;32542;52.832;13.816;2023-01-28T02:56:19;8.40;;;5.35;;
17253;SDS011;32542;52.832;13.816;2023-01-28T02:59:34;6.75;;;5.03;;
17253;SDS011;32542;52.832;13.816;2023-01-28T03:02:49;8.32;;;5.13;;
17253;SDS011;32542;52.832;13.816;2023-01-28T03:05:55;7.82;;;5.25;;
17253;SDS011;32542;52.832;13.816;2023-01-28T03:09:08;9.02;;;5.20;;
17253;SDS011;32542;52.832;13.816;2023-01-28T03:12:27;6.85;;;4.72;;
17253;SDS011;32542;52.832;13.816;2023-01-28T03:15:49;6.95;;;4.78;;
17253;SDS011;32542;52.832;13.816;2023-01-28T03:19:11;6.82;;;4.82;;
17253;SDS011;32542;52.832;13.816;2023-01-28T03:22:33;6.80;;;4.57;;
17253;SDS011;32542;52.832;13.816;2023-01-28T03:25:59;6.95;;;4.28;;
17253;SDS011;32542;52.832;13.816;2023-01-28T03:29:23;6.63;;;4.70;;
17253;SDS011;32542;52.832;13.816;2023-01-28T03:32:47;8.60;;;5.25;;
17253;SDS011;32542;52.832;13.816;2023-01-28T03:36:10;7.68;;;4.63;;
17253;SDS011;32542;52.832;13.816;2023-01-28T03:39:31;8.95;;;4.72;;
17253;SDS011;32542;52.832;13.816;2023-01-28T03:42:34;8.30;;;4.55;;
17253;SDS011;32542;52.832;13.816;2023-01-28T03:45:54;6.63;;;4.30;;
17253;SDS011;32542;52.832;13.816;2023-01-28T03:48:57;6.47;;;4.32;;
17253;SDS011;32542;52.832;13.816;2023-01-28T03:52:01;5.78;;;4.30;;
17253;SDS011;32542;52.832;13.816;2023-01-28T03:55:04;5.88;;;4.00;;
17253;SDS011;32542;52.832;13.816;2023-01-28T03:58:15;5.57;;;4.05;;
17253;SDS011;32542;52.832;13.816;2023-01-28T04:01:19;6.57;;;4.35;;
17253;SDS011;32542;52.832;13.816;2023-01-28T04:04:23;5.55;;;4.07;;
17253;SDS011;32542;52.832;13.816;2023-01-28T04:07:30;6.55;;;4.30;;
17253;SDS011;32542;52.832;13.816;2023-01-28T04:10:51;6.43;;;4.07;;
17253;SDS011;32542;52.832;13.816;2023-01-28T04:13:59;5.95;;;4.00;;
17253;SDS011;32542;52.832;13.816;2023-01-28T04:17:14;5.60;;;4.00;;
17253;SDS011;32542;52.832;13.816;2023-01-28T04:20:19;5.40;;;3.63;;
17253;SDS011;32542;52.832;13.816;2023-01-28T04:23:24;6.53;;;4.13;;
17253;SDS011;32542;52.832;13.816;2023-01-28T04:26:27;5.82;;;3.80;;
17253;SDS011;32542;52.832;13.816;2023-01-28T04:29:30;7.05;;;3.53;;
17253;SDS011;32542;52.832;13.816;2023-01-28T04:32:49;4.45;;;3.22;;
17253;SDS011;32542;52.832;13.816;2023-01-28T04:36:00;5.97;;;3.40;;
17253;SDS011;32542;52.832;13.816;2023-01-28T04:39:23;6.18;;;3.75;;
17253;SDS011;32542;52.832;13.816;2023-01-28T04:42:42;4.97;;;3.78;;
17253;SDS011;32542;52.832;13.816;2023-01-28T04:46:04;6.22;;;3.58;;
17253;SDS011;32542;52.832;13.816;2023-01-28T04:49:14;5.40;;;3.90;;
17253;SDS011;32542;52.832;13.816;2023-01-28T04:52:25;5.93;;;3.85;;
17253;SDS011;32542;52.832;13.816;2023-01-28T04:55:40;5.85;;;4.10;;
17253;SDS011;32542;52.832;13.816;2023-01-28T04:58:44;6.22;;;4.30;;
17253;SDS011;32542;52.832;13.816;2023-01-28T05:01:49;5.72;;;3.58;;
17253;SDS011;32542;52.832;13.816;2023-01-28T05:04:53;5.53;;;3.92;;
17253;SDS011;32542;52.832;13.816;2023-01-28T05:08:18;5.63;;;3.55;;
17253;SDS011;32542;52.832;13.816;2023-01-28T05:11:23;4.97;;;3.45;;
17253;SDS011;32542;52.832;13.816;2023-01-28T05:14:31;5.50;;;3.40;;
17253;SDS011;32542;52.832;13.816;2023-01-28T05:17:40;5.78;;;3.90;;
17253;SDS011;32542;52.832;13.816;2023-01-28T05:20:46;5.47;;;3.97;;
17253;SDS011;32542;52.832;13.816;2023-01-28T05:23:49;5.15;;;3.60;;
17253;SDS011;32542;52.832;13.816;2023-01-28T05:26:54;6.35;;;3.72;;
17253;SDS011;32542;52.832;13.816;2023-01-28T05:29:57;5.88;;;3.85;;
17253;SDS011;32542;52.832;13.816;2023-01-28T05:33:00;4.20;;;3.38;;
17253;SDS011;32542;52.832;13.816;2023-01-28T05:36:04;4.15;;;3.28;;
17253;SDS011;32542;52.832;13.816;2023-01-28T05:39:08;5.65;;;3.35;;
17253;SDS011;32542;52.832;13.816;2023-01-28T05:42:12;3.97;;;3.30;;
17253;SDS011;32542;52.832;13.816;2023-01-28T05:45:20;4.80;;;3.40;;
17253;SDS011;32542;52.832;13.816;2023-01-28T05:48:43;4.63;;;3.42;;
17253;SDS011;32542;52.832;13.816;2023-01-28T05:52:07;4.95;;;3.50;;
17253;SDS011;32542;52.832;13.816;2023-01-28T05:55:11;4.65;;;3.13;;
17253;SDS011;32542;52.832;13.816;2023-01-28T05:58:15;4.45;;;3.25;;
17253;SDS011;32542;52.832;13.816;2023-01-28T06:01:20;4.38;;;3.22;;
17253;SDS011;32542;52.832;13.816;2023-01-28T06:04:27;4.97;;;3.63;;
17253;SDS011;32542;52.832;13.816;2023-01-28T06:07:31;4.82;;;3.30;;
17253;SDS011;32542;52.832;13.816;2023-01-28T06:10:34;4.32;;;3.15;;
17253;SDS011;32542;52.832;13.816;2023-01-28T06:13:39;5.90;;;3.45;;
17253;SDS011;32542;52.832;13.816;2023-01-28T06:17:20;3.85;;;2.72;;
17253;SDS011;32542;52.832;13.816;2023-01-28T06:20:36;4.45;;;3.00;;
17253;SDS011;32542;52.832;13.816;2023-01-28T06:23:39;4.85;;;3.28;;
17253;SDS011;32542;52.832;13.816;2023-01-28T06:26:43;4.65;;;3.40;;
17253;SDS011;32542;52.832;13.816;2023-01-28T06:29:47;4.82;;;3.10;;
17253;SDS011;32542;52.832;13.816;2023-01-28T06:32:52;4.15;;;2.85;;
17253;SDS011;32542;52.832;13.816;2023-01-28T06:35:56;4.50;;;3.47;;
17253;SDS011;32542;52.832;13.816;2023-01-28T06:38:59;4.95;;;3.30;;
17253;SDS011;32542;52.832;13.816;2023-01-28T06:42:02;4.78;;;3.10;;
17253;SDS011;32542;52.832;13.816;2023-01-28T06:45:07;4.50;;;3.22;;
17253;SDS011;32542;52.832;13.816;2023-01-28T06:48:10;5.15;;;3.20;;
17253;SDS011;32542;52.832;13.816;2023-01-28T06:51:13;3.95;;;2.95;;
17253;SDS011;32542;52.832;13.816;2023-01-28T06:54:16;4.45;;;3.10;;
17253;SDS011;32542;52.832;13.816;2023-01-28T06:57:19;5.85;;;2.85;;
17253;SDS011;32542;52.832;13.816;2023-01-28T07:00:23;3.97;;;2.75;;
17253;SDS011;32542;52.832;13.816;2023-01-28T07:03:26;3.60;;;2.92;;
17253;SDS011;32542;52.832;13.816;2023-01-28T07:06:29;3.85;;;3.00;;
17253;SDS011;32542;52.832;13.816;2023-01-28T07:09:32;3.90;;;3.20;;
17253;SDS011;32542;52.832;13.816;2023-01-28T07:12:35;4.15;;;2.92;;
17253;SDS011;32542;52.832;13.816;2023-01-28T07:15:39;3.88;;;3.03;;
17253;SDS011;32542;52.832;13.816;2023-01-28T07:18:42;4.22;;;3.00;;
17253;SDS011;32542;52.832;13.816;2023-01-28T07:21:45;3.78;;;2.85;;
17253;SDS011;32542;52.832;13.816;2023-01-28T07:24:48;3.97;;;2.92;;
17253;SDS011;32542;52.832;13.816;2023-01-28T07:27:52;3.30;;;2.83;;
17253;SDS011;32542;52.832;13.816;2023-01-28T07:30:56;3.83;;;2.92;;
17253;SDS011;32542;52.832;13.816;2023-01-28T07:34:00;3.33;;;2.40;;
17253;SDS011;32542;52.832;13.816;2023-01-28T07:37:03;4.50;;;3.10;;
17253;SDS011;32542;52.832;13.816;2023-01-28T07:40:07;3.90;;;2.83;;
17253;SDS011;32542;52.832;13.816;2023-01-28T07:43:11;3.63;;;2.75;;
17253;SDS011;32542;52.832;13.816;2023-01-28T07:46:16;5.22;;;3.00;;
17253;SDS011;32542;52.832;13.816;2023-01-28T07:49:18;3.80;;;2.50;;
17253;SDS011;32542;52.832;13.816;2023-01-28T07:52:21;3.35;;;2.80;;
17253;SDS011;32542;52.832;13.816;2023-01-28T07:55:24;3.22;;;2.53;;
17253;SDS011;32542;52.832;13.816;2023-01-28T07:58:31;3.47;;;2.55;;
17253;SDS011;32542;52.832;13.816;2023-01-28T08:01:36;4.50;;;2.92;;
17253;SDS011;32542;52.832;13.816;2023-01-28T08:04:39;4.00;;;2.83;;
17253;SDS011;32542;52.832;13.816;2023-01-28T08:07:42;3.05;;;2.65;;
17253;SDS011;32542;52.832;13.816;2023-01-28T08:10:45;3.47;;;2.60;;
17253;SDS011;32542;52.832;13.816;2023-01-28T08:13:49;3.55;;;2.63;;
17253;SDS011;32542;52.832;13.816;2023-01-28T08:16:53;4.20;;;2.67;;
17253;SDS011;32542;52.832;13.816;2023-01-28T08:19:56;3.83;;;2.70;;
17253;SDS011;32542;52.832;13.816;2023-01-28T08:23:06;3.05;;;2.30;;
17253;SDS011;32542;52.832;13.816;2023-01-28T08:26:09;4.30;;;2.70;;
17253;SDS011;32542;52.832;13.816;2023-01-28T08:29:13;3.60;;;2.53;;
17253;SDS011;32542;52.832;13.816;2023-01-28T08:32:17;3.80;;;2.70;;
17253;SDS011;32542;52.832;13.816;2023-01-28T08:35:20;3.45;;;2.45;;
17253;SDS011;32542;52.832;13.816;2023-01-28T08:38:23;3.75;;;2.75;;
17253;SDS011;32542;52.832;13.816;2023-01-28T08:41:26;3.63;;;2.40;;
17253;SDS011;32542;52.832;13.816;2023-01-28T08:44:29;3.65;;;2.58;;
17253;SDS011;32542;52.832;13.816;2023-01-28T08:47:33;3.92;;;2.58;;
17253;SDS011;32542;52.832;13.816;2023-01-28T08:50:37;3.83;;;2.53;;
17253;SDS011;32542;52.832;13.816;2023-01-28T08:53:40;3.45;;;2.22;;
17253;SDS011;32542;52.832;13.816;2023-01-28T08:56:43;2.40;;;2.20;;
17253;SDS011;32542;52.832;13.816;2023-01-28T08:59:46;3.00;;;2.40;;
17253;SDS011;32542;52.832;13.816;2023-01-28T09:02:51;3.05;;;2.50;;
17253;SDS011;32542;52.832;13.816;2023-01-28T09:05:58;3.30;;;2.45;;
17253;SDS011;32542;52.832;13.816;2023-01-28T09:09:01;3.40;;;2.67;;
17253;SDS011;32542;52.832;13.816;2023-01-28T09:12:05;3.05;;;2.25;;
17253;SDS011;32542;52.832;13.816;2023-01-28T09:15:09;3.47;;;2.60;;
17253;SDS011;32542;52.832;13.816;2023-01-28T09:18:14;4.28;;;2.63;;
17253;SDS011;32542;52.832;13.816;2023-01-28T09:21:17;3.13;;;2.53;;
17253;SDS011;32542;52.832;13.816;2023-01-28T09:24:20;3.97;;;2.45;;
17253;SDS011;32542;52.832;13.816;2023-01-28T09:27:23;3.53;;;2.38;;
17253;SDS011;32542;52.832;13.816;2023-01-28T09:30:26;3.50;;;2.35;;
17253;SDS011;32542;52.832;13.816;2023-01-28T09:33:30;2.47;;;2.20;;
17253;SDS011;32542;52.832;13.816;2023-01-28T09:36:34;5.18;;;2.58;;
17253;SDS011;32542;52.832;13.816;2023-01-28T09:39:37;3.40;;;2.35;;
17253;SDS011;32542;52.832;13.816;2023-01-28T09:42:45;4.05;;;2.30;;
17253;SDS011;32542;52.832;13.816;2023-01-28T09:45:57;6.05;;;2.40;;
17253;SDS011;32542;52.832;13.816;2023-01-28T09:49:04;7.32;;;2.40;;
17253;SDS011;32542;52.832;13.816;2023-01-28T09:52:16;2.97;;;2.00;;
17253;SDS011;32542;52.832;13.816;2023-01-28T09:55:24;3.42;;;2.00;;
17253;SDS011;32542;52.832;13.816;2023-01-28T09:58:33;4.15;;;2.40;;
17253;SDS011;32542;52.832;13.816;2023-01-28T10:01:37;6.43;;;3.40;;
17253;SDS011;32542;52.832;13.816;2023-01-28T10:04:50;4.35;;;2.67;;
17253;SDS011;32542;52.832;13.816;2023-01-28T10:08:02;6.22;;;2.85;;
17253;SDS011;32542;52.832;13.816;2023-01-28T10:11:24;3.97;;;2.60;;
17253;SDS011;32542;52.832;13.816;2023-01-28T10:14:41;6.05;;;2.50;;
17253;SDS011;32542;52.832;13.816;2023-01-28T10:17:53;5.45;;;2.65;;
17253;SDS011;32542;52.832;13.816;2023-01-28T10:21:19;6.22;;;2.45;;
17253;SDS011;32542;52.832;13.816;2023-01-28T10:24:28;4.25;;;2.88;;
17253;SDS011;32542;52.832;13.816;2023-01-28T10:27:35;6.10;;;3.00;;
17253;SDS011;32542;52.832;13.816;2023-01-28T10:30:38;10.77;;;3.30;;
17253;SDS011;32542;52.832;13.816;2023-01-28T10:33:46;4.93;;;2.83;;
17253;SDS011;32542;52.832;13.816;2023-01-28T10:36:50;6.97;;;3.28;;
17253;SDS011;32542;52.832;13.816;2023-01-28T10:39:54;7.47;;;3.00;;
17253;SDS011;32542;52.832;13.816;2023-01-28T10:42:59;7.32;;;3.28;;
17253;SDS011;32542;52.832;13.816;2023-01-28T10:46:04;10.20;;;3.53;;
17253;SDS011;32542;52.832;13.816;2023-01-28T10:49:11;8.50;;;3.33;;
17253;SDS011;32542;52.832;13.816;2023-01-28T10:52:19;9.15;;;3.60;;
17253;SDS011;32542;52.832;13.816;2023-01-28T10:55:22;12.10;;;3.92;;
17253;SDS011;32542;52.832;13.816;2023-01-28T10:58:28;12.18;;;3.78;;
17253;SDS011;32542;52.832;13.816;2023-01-28T11:01:39;20.88;;;3.20;;
17253;SDS011;32542;52.832;13.816;2023-01-28T11:04:45;18.33;;;3.53;;
17253;SDS011;32542;52.832;13.816;2023-01-28T11:07:50;21.58;;;3.92;;
17253;SDS011;32542;52.832;13.816;2023-01-28T11:11:12;30.58;;;5.05;;
17253;SDS011;32542;52.832;13.816;2023-01-28T11:14:19;31.80;;;4.68;;
17253;SDS011;32542;52.832;13.816;2023-01-28T11:17:24;40.88;;;5.78;;
17253;SDS011;32542;52.832;13.816;2023-01-28T11:20:30;37.75;;;4.95;;
17253;SDS011;32542;52.832;13.816;2023-01-28T11:23:41;33.08;;;4.72;;
17253;SDS011;32542;52.832;13.816;2023-01-28T11:26:53;30.95;;;4.28;;
17253;SDS011;32542;52.832;13.816;2023-01-28T11:29:59;18.60;;;3.80;;
17253;SDS011;32542;52.832;13.816;2023-01-28T11:33:06;22.13;;;3.75;;
17253;SDS011;32542;52.832;13.816;2023-01-28T11:36:18;22.98;;;4.05;;
17253;SDS011;32542;52.832;13.816;2023-01-28T11:39:24;10.32;;;2.95;;
17253;SDS011;32542;52.832;13.816;2023-01-28T11:42:30;10.80;;;2.90;;
17253;SDS011;32542;52.832;13.816;2023-01-28T11:45:34;13.73;;;2.92;;
17253;SDS011;32542;52.832;13.816;2023-01-28T11:48:47;26.40;;;4.93;;
17253;SDS011;32542;52.832;13.816;2023-01-28T11:52:00;12.20;;;3.60;;
17253;SDS011;32542;52.832;13.816;2023-01-28T11:55:19;17.73;;;3.17;;
17253;SDS011;32542;52.832;13.816;2023-01-28T11:58:31;20.65;;;4.13;;
17253;SDS011;32542;52.832;13.816;2023-01-28T12:01:44;16.50;;;3.22;;
17253;SDS011;32542;52.832;13.816;2023-01-28T12:04:57;18.63;;;3.45;;
17253;SDS011;32542;52.832;13.816;2023-01-28T12:08:13;18.10;;;5.00;;
17253;SDS011;32542;52.832;13.816;2023-01-28T12:11:29;23.95;;;6.95;;
17253;SDS011;32542;52.832;13.816;2023-01-28T12:15:04;46.35;;;11.95;;
17253;SDS011;32542;52.832;13.816;2023-01-28T12:18:25;68.93;;;20.33;;
17253;SDS011;32542;52.832;13.816;2023-01-28T12:21:56;121.78;;;35.05;;
17253;SDS011;32542;52.832;13.816;2023-01-28T12:25:15;168.77;;;47.47;;
17253;SDS011;32542;52.832;13.816;2023-01-28T12:28:33;163.27;;;51.70;;
17253;SDS011;32542;52.832;13.816;2023-01-28T12:31:51;176.75;;;54.13;;
17253;SDS011;32542;52.832;13.816;2023-01-28T12:35:16;164.02;;;52.45;;
17253;SDS011;32542;52.832;13.816;2023-01-28T12:38:27;165.45;;;50.67;;
17253;SDS011;32542;52.832;13.816;2023-01-28T12:41:40;161.70;;;49.75;;
17253;SDS011;32542;52.832;13.816;2023-01-28T12:44:50;181.77;;;52.05;;
17253;SDS011;32542;52.832;13.816;2023-01-28T12:48:00;172.43;;;52.53;;
17253;SDS011;32542;52.832;13.816;2023-01-28T12:51:09;149.27;;;47.97;;
17253;SDS011;32542;52.832;13.816;2023-01-28T12:54:17;169.52;;;47.20;;
17253;SDS011;32542;52.832;13.816;2023-01-28T12:57:23;161.95;;;48.10;;
17253;SDS011;32542;52.832;13.816;2023-01-28T13:00:31;152.32;;;46.00;;
17253;SDS011;32542;52.832;13.816;2023-01-28T13:03:39;126.72;;;43.25;;
17253;SDS011;32542;52.832;13.816;2023-01-28T13:06:48;139.73;;;43.88;;
17253;SDS011;32542;52.832;13.816;2023-01-28T13:09:57;140.25;;;43.13;;
17253;SDS011;32542;52.832;13.816;2023-01-28T13:13:05;142.98;;;44.30;;
17253;SDS011;32542;52.832;13.816;2023-01-28T13:16:10;144.18;;;43.95;;
17253;SDS011;32542;52.832;13.816;2023-01-28T13:19:24;124.25;;;40.28;;
17253;SDS011;32542;52.832;13.816;2023-01-28T13:22:38;116.15;;;39.60;;
17253;SDS011;32542;52.832;13.816;2023-01-28T13:25:46;136.40;;;41.15;;
17253;SDS011;32542;52.832;13.816;2023-01-28T13:28:51;112.53;;;37.00;;
17253;SDS011;32542;52.832;13.816;2023-01-28T13:31:57;122.75;;;38.38;;
17253;SDS011;32542;52.832;13.816;2023-01-28T13:35:02;127.15;;;39.88;;
17253;SDS011;32542;52.832;13.816;2023-01-28T13:38:08;105.00;;;37.35;;
17253;SDS011;32542;52.832;13.816;2023-01-28T13:41:17;127.07;;;38.55;;
17253;SDS011;32542;52.832;13.816;2023-01-28T13:44:25;114.22;;;38.17;;
17253;SDS011;32542;52.832;13.816;2023-01-28T13:47:32;116.35;;;38.88;;
17253;SDS011;32542;52.832;13.816;2023-01-28T13:50:39;116.50;;;37.45;;
17253;SDS011;32542;52.832;13.816;2023-01-28T13:53:44;112.88;;;36.72;;
17253;SDS011;32542;52.832;13.816;2023-01-28T13:56:56;103.50;;;36.42;;
17253;SDS011;32542;52.832;13.816;2023-01-28T14:00:18;91.85;;;33.75;;
17253;SDS011;32542;52.832;13.816;2023-01-28T14:03:34;102.75;;;35.33;;
17253;SDS011;32542;52.832;13.816;2023-01-28T14:06:58;95.07;;;33.45;;
17253;SDS011;32542;52.832;13.816;2023-01-28T14:10:14;112.72;;;35.35;;
17253;SDS011;32542;52.832;13.816;2023-01-28T14:13:49;95.00;;;31.58;;
17253;SDS011;32542;52.832;13.816;2023-01-28T14:17:09;101.38;;;32.10;;
17253;SDS011;32542;52.832;13.816;2023-01-28T14:20:24;92.68;;;31.98;;
17253;SDS011;32542;52.832;13.816;2023-01-28T14:23:30;97.18;;;32.38;;
17253;SDS011;32542;52.832;13.816;2023-01-28T14:26:46;93.00;;;30.20;;
17253;SDS011;32542;52.832;13.816;2023-01-28T14:30:02;95.78;;;31.85;;
17253;SDS011;32542;52.832;13.816;2023-01-28T14:33:12;109.55;;;46.42;;
17253;SDS011;32542;52.832;13.816;2023-01-28T14:36:16;151.70;;;70.63;;
17253;SDS011;32542;52.832;13.816;2023-01-28T14:39:19;164.32;;;92.63;;
17253;SDS011;32542;52.832;13.816;2023-01-28T14:42:29;226.32;;;126.95;;
17253;SDS011;32542;52.832;13.816;2023-01-28T14:45:37;223.75;;;128.45;;
17253;SDS011;32542;52.832;13.816;2023-01-28T14:48:58;179.85;;;100.10;;
17253;SDS011;32542;52.832;13.816;2023-01-28T14:52:31;161.20;;;92.72;;
17253;SDS011;32542;52.832;13.816;2023-01-28T14:55:50;136.10;;;77.57;;
17253;SDS011;32542;52.832;13.816;2023-01-28T14:58:58;129.52;;;75.65;;
17253;SDS011;32542;52.832;13.816;2023-01-28T15:02:09;138.15;;;74.55;;
17253;SDS011;32542;52.832;13.816;2023-01-28T15:05:20;130.57;;;74.80;;
17253;SDS011;32542;52.832;13.816;2023-01-28T15:08:26;125.50;;;70.00;;
17253;SDS011;32542;52.832;13.816;2023-01-28T15:11:28;130.30;;;69.47;;
17253;SDS011;32542;52.832;13.816;2023-01-28T15:14:32;129.10;;;68.22;;
17253;SDS011;32542;52.832;13.816;2023-01-28T15:17:35;125.55;;;64.55;;
17253;SDS011;32542;52.832;13.816;2023-01-28T15:20:38;112.28;;;64.03;;
17253;SDS011;32542;52.832;13.816;2023-01-28T15:23:47;110.82;;;60.40;;
17253;SDS011;32542;52.832;13.816;2023-01-28T15:26:54;105.25;;;60.92;;
17253;SDS011;32542;52.832;13.816;2023-01-28T15:29:57;102.47;;;59.08;;
17253;SDS011;32542;52.832;13.816;2023-01-28T15:33:03;113.22;;;59.88;;
17253;SDS011;32542;52.832;13.816;2023-01-28T15:36:08;105.75;;;59.28;;
17253;SDS011;32542;52.832;13.816;2023-01-28T15:39:13;100.13;;;55.97;;
17253;SDS011;32542;52.832;13.816;2023-01-28T15:42:18;101.45;;;55.88;;
17253;SDS011;32542;52.832;13.816;2023-01-28T15:45:26;100.68;;;54.63;;
17253;SDS011;32542;52.832;13.816;2023-01-28T15:48:31;104.10;;;55.25;;
17253;SDS011;32542;52.832;13.816;2023-01-28T15:51:36;95.55;;;51.17;;
17253;SDS011;32542;52.832;13.816;2023-01-28T15:54:41;90.57;;;51.47;;
17253;SDS011;32542;52.832;13.816;2023-01-28T15:57:46;91.18;;;49.38;;
17253;SDS011;32542;52.832;13.816;2023-01-28T16:00:48;91.80;;;49.72;;
17253;SDS011;32542;52.832;13.816;2023-01-28T16:04:01;90.68;;;49.88;;
17253;SDS011;32542;52.832;13.816;2023-01-28T16:07:05;84.22;;;48.40;;
17253;SDS011;32542;52.832;13.816;2023-01-28T16:10:17;84.68;;;47.05;;
17253;SDS011;32542;52.832;13.816;2023-01-28T16:13:24;79.70;;;47.33;;
17253;SDS011;32542;52.832;13.816;2023-01-28T16:16:29;87.68;;;49.47;;
17253;SDS011;32542;52.832;13.816;2023-01-28T16:19:36;84.88;;;46.33;;
17253;SDS011;32542;52.832;13.816;2023-01-28T16:22:41;80.22;;;44.42;;
17253;SDS011;32542;52.832;13.816;2023-01-28T16:25:46;82.53;;;45.83;;
17253;SDS011;32542;52.832;13.816;2023-01-28T16:29:09;76.57;;;45.13;;
17253;SDS011;32542;52.832;13.816;2023-01-28T16:32:27;78.32;;;43.03;;
17253;SDS011;32542;52.832;13.816;2023-01-28T16:35:32;78.53;;;42.80;;
17253;SDS011;32542;52.832;13.816;2023-01-28T16:38:55;79.28;;;42.80;;
17253;SDS011;32542;52.832;13.816;2023-01-28T16:42:04;73.65;;;41.20;;
17253;SDS011;32542;52.832;13.816;2023-01-28T16:45:09;69.00;;;40.72;;
17253;SDS011;32542;52.832;13.816;2023-01-28T16:48:17;67.47;;;39.35;;
17253;SDS011;32542;52.832;13.816;2023-01-28T16:51:20;65.32;;;38.97;;
17253;SDS011;32542;52.832;13.816;2023-01-28T16:54:24;68.53;;;38.95;;
17253;SDS011;32542;52.832;13.816;2023-01-28T16:57:28;70.15;;;39.63;;
17253;SDS011;32542;52.832;13.816;2023-01-28T17:00:37;72.25;;;39.28;;
17253;SDS011;32542;52.832;13.816;2023-01-28T17:03:40;67.65;;;38.92;;
17253;SDS011;32542;52.832;13.816;2023-01-28T17:06:43;68.40;;;37.75;;
17253;SDS011;32542;52.832;13.816;2023-01-28T17:09:46;68.45;;;37.30;;
17253;SDS011;32542;52.832;13.816;2023-01-28T17:12:51;58.72;;;35.58;;
17253;SDS011;32542;52.832;13.816;2023-01-28T17:15:54;62.45;;;36.60;;
17253;SDS011;32542;52.832;13.816;2023-01-28T17:18:57;65.90;;;35.28;;
17253;SDS011;32542;52.832;13.816;2023-01-28T17:22:00;57.83;;;34.40;;
17253;SDS011;32542;52.832;13.816;2023-01-28T17:25:03;60.60;;;35.00;;
17253;SDS011;32542;52.832;13.816;2023-01-28T17:28:08;63.90;;;34.13;;
17253;SDS011;32542;52.832;13.816;2023-01-28T17:31:12;62.33;;;33.00;;
17253;SDS011;32542;52.832;13.816;2023-01-28T17:34:15;65.30;;;32.63;;
17253;SDS011;32542;52.832;13.816;2023-01-28T17:37:18;60.72;;;31.42;;
17253;SDS011;32542;52.832;13.816;2023-01-28T17:40:21;58.35;;;32.20;;
17253;SDS011;32542;52.832;13.816;2023-01-28T17:43:26;58.45;;;31.15;;
17253;SDS011;32542;52.832;13.816;2023-01-28T17:46:29;59.20;;;30.48;;
17253;SDS011;32542;52.832;13.816;2023-01-28T17:49:31;56.78;;;29.95;;
17253;SDS011;32542;52.832;13.816;2023-01-28T17:52:34;52.42;;;29.50;;
17253;SDS011;32542;52.832;13.816;2023-01-28T17:55:37;57.50;;;29.23;;
17253;SDS011;32542;52.832;13.816;2023-01-28T17:58:42;49.28;;;28.40;;
17253;SDS011;32542;52.832;13.816;2023-01-28T18:01:45;53.15;;;28.83;;
17253;SDS011;32542;52.832;13.816;2023-01-28T18:04:49;53.25;;;27.17;;
17253;SDS011;32542;52.832;13.816;2023-01-28T18:07:52;49.92;;;27.77;;
17253;SDS011;32542;52.832;13.816;2023-01-28T18:10:55;52.28;;;28.25;;
17253;SDS011;32542;52.832;13.816;2023-01-28T18:13:59;51.50;;;27.33;;
17253;SDS011;32542;52.832;13.816;2023-01-28T18:17:02;47.65;;;26.55;;
17253;SDS011;32542;52.832;13.816;2023-01-28T18:20:06;44.88;;;27.20;;